RPLL/MNL METAR and TAF weather

Enter ICAO airport designator
Station Type Date Time Source
RPLL METAR 2022/01/26 19:00 UTC NOAA

RPLL 261900Z VRB02KT 9000 FEW025 BKN090 26/24 Q1009 NOSIG RMK A2980


Station Type Date Time Source
RPLL Decoded METAR 2022/01/26 19:00 UTC NOAA

Ninoy Aquino Inter-National Airport, Philippines (RPLL) 14-31N 121-00E 15M
Jan 26, 2022 - 02:00 PM EST / 2022.01.26 1900 UTC
Wind: Variable at 2 MPH (2 KT):0
Visibility: 5 mile(s):0
Sky conditions: mostly cloudy
Temperature: 78 F (26 C)
Dew Point: 75 F (24 C)
Relative Humidity: 88%
Pressure (altimeter): 29.80 in. Hg (1009 hPa)
ob: RPLL 261900Z VRB02KT 9000 FEW025 BKN090 26/24 Q1009 NOSIG RMK A2980
cycle: 19

Station Type Date Time Source
RPLL TAF 2022/01/26 18:22 UTC NOAA

TAF RPLL 261700Z 2618/2724 10006KT 9999 FEW025 BKN100 TX30/2706Z TN24/2621Z
TEMPO 2618/2624 VRB02KT -SHRA
TEMPO 2700/2706 VRB03KT FEW025 SCT100

Example: see airport list